createdAt,value
2018-06-01T00:01:33.650Z,10.43
2018-06-01T00:04:34.917Z,11.13
2018-06-01T00:07:36.358Z,10.47
2018-06-01T00:10:37.598Z,10.00
2018-06-01T00:13:39.593Z,10.07
2018-06-01T00:16:40.843Z,9.70
2018-06-01T00:19:42.856Z,10.73
2018-06-01T00:22:44.099Z,9.50
2018-06-01T00:25:45.351Z,10.83
2018-06-01T00:28:48.874Z,11.30
2018-06-01T00:31:50.525Z,10.70
2018-06-01T00:34:52.561Z,10.83
2018-06-01T00:37:53.997Z,11.97
2018-06-01T00:40:55.237Z,11.67
2018-06-01T00:43:57.805Z,10.60
2018-06-01T00:47:02.140Z,12.60
2018-06-01T00:50:03.426Z,11.33
2018-06-01T00:53:05.983Z,11.83
2018-06-01T00:56:07.839Z,11.80
2018-06-01T00:59:09.218Z,10.77
2018-06-01T01:02:10.474Z,12.60
2018-06-01T01:05:11.785Z,11.07
2018-06-01T01:08:13.042Z,11.57
2018-06-01T01:11:14.366Z,11.30
2018-06-01T01:14:15.630Z,11.60
2018-06-01T01:17:17.814Z,13.23
2018-06-01T01:20:19.080Z,11.40
2018-06-01T01:23:20.322Z,11.90
2018-06-01T01:26:21.660Z,12.27
2018-06-01T01:29:23.699Z,11.90
2018-06-01T01:32:24.985Z,12.13
2018-06-01T01:35:26.646Z,13.90
2018-06-01T01:38:27.945Z,14.67
2018-06-01T01:41:29.906Z,14.47
2018-06-01T01:44:31.173Z,13.83
2018-06-01T01:47:32.431Z,13.90
2018-06-01T01:50:33.681Z,12.23
2018-06-01T01:53:34.938Z,13.83
2018-06-01T01:56:36.449Z,13.30
2018-06-01T01:59:38.447Z,13.90
2018-06-01T02:02:39.674Z,15.00
2018-06-01T02:05:40.965Z,15.30
2018-06-01T02:08:42.947Z,15.60
2018-06-01T02:11:44.426Z,14.40
2018-06-01T02:14:45.737Z,16.77
2018-06-01T02:17:47.652Z,16.07
2018-06-01T02:20:49.636Z,18.10
2018-06-01T02:23:51.604Z,16.60
2018-06-01T02:26:52.858Z,17.30
2018-06-01T02:29:54.771Z,16.57
2018-06-01T02:32:59.483Z,18.30
2018-06-01T02:36:01.681Z,19.20
2018-06-01T02:39:02.967Z,18.30
2018-06-01T02:42:04.445Z,19.83
2018-06-01T02:45:05.695Z,18.33
2018-06-01T02:48:06.972Z,20.80
2018-06-01T02:51:08.196Z,18.13
2018-06-01T02:54:09.526Z,20.57
2018-06-01T02:57:10.771Z,20.50
2018-06-01T03:00:12.043Z,21.17
2018-06-01T03:03:13.271Z,21.30
2018-06-01T03:06:14.580Z,19.20
2018-06-01T03:09:15.846Z,17.60
2018-06-01T03:12:17.083Z,23.30
2018-06-01T03:15:18.356Z,22.20
2018-06-01T03:18:19.609Z,20.87
2018-06-01T03:21:20.901Z,20.40
2018-06-01T03:24:22.228Z,20.60
2018-06-01T03:27:23.485Z,24.10
2018-06-01T03:30:24.798Z,21.50
2018-06-01T03:33:26.045Z,22.57
2018-06-01T03:36:28.113Z,22.57
2018-06-01T03:39:29.382Z,22.97
2018-06-01T03:42:30.654Z,24.43
2018-06-01T03:45:31.937Z,25.00
2018-06-01T03:48:33.195Z,23.93
2018-06-01T03:51:34.464Z,23.57
2018-06-01T03:54:35.713Z,22.80
2018-06-01T03:57:36.969Z,23.50
2018-06-01T04:00:38.245Z,22.17
2018-06-01T04:03:39.481Z,22.63
2018-06-01T04:06:40.782Z,21.03
2018-06-01T04:09:42.020Z,20.57
2018-06-01T04:12:43.266Z,22.63
2018-06-01T04:15:45.935Z,22.67
2018-06-01T04:18:47.456Z,25.27
2018-06-01T04:21:49.350Z,24.00
2018-06-01T04:24:51.900Z,22.77
2018-06-01T04:27:53.876Z,22.80
2018-06-01T04:30:55.714Z,25.17
2018-06-01T04:33:58.207Z,24.60
2018-06-01T04:37:00.826Z,23.20
2018-06-01T04:40:02.646Z,24.50
2018-06-01T04:43:04.777Z,26.17
2018-06-01T04:46:06.593Z,31.87
2018-06-01T04:49:13.465Z,34.57
2018-06-01T04:52:17.027Z,32.20
2018-06-01T04:55:18.832Z,35.63
2018-06-01T04:58:20.597Z,34.07
2018-06-01T05:01:23.268Z,32.43
2018-06-01T05:04:25.138Z,32.37
2018-06-01T05:07:27.036Z,32.93
2018-06-01T05:10:29.691Z,30.77
2018-06-01T05:13:31.547Z,37.47
2018-06-01T05:16:33.411Z,36.50
2018-06-01T05:19:35.913Z,37.00
2018-06-01T05:22:37.732Z,35.10
2018-06-01T05:25:39.451Z,44.20
2018-06-01T05:28:42.052Z,38.30
2018-06-01T05:31:43.807Z,40.97
2018-06-01T05:34:46.335Z,40.83
2018-06-01T05:37:48.125Z,39.40
2018-06-01T05:40:49.939Z,39.23
2018-06-01T05:43:51.717Z,38.93
2018-06-01T05:46:53.697Z,34.80
2018-06-01T05:49:55.999Z,33.57
2018-06-01T05:52:57.838Z,32.20
2018-06-01T05:55:59.608Z,29.50
2018-06-01T05:59:01.379Z,26.03
2018-06-01T06:02:03.924Z,25.33
2018-06-01T06:05:05.744Z,25.63
2018-06-01T06:08:07.537Z,28.80
2018-06-01T06:11:09.267Z,27.83
2018-06-01T06:14:11.041Z,25.80
2018-06-01T06:17:12.805Z,25.20
2018-06-01T06:20:14.608Z,24.93
2018-06-01T06:23:16.326Z,25.20
2018-06-01T06:26:18.103Z,25.40
2018-06-01T06:29:20.401Z,28.63
2018-06-01T06:32:22.951Z,28.57
2018-06-01T06:35:24.788Z,29.17
2018-06-01T06:38:26.585Z,28.90
2018-06-01T06:41:28.327Z,27.47
2018-06-01T06:44:30.863Z,27.43
2018-06-01T06:47:32.642Z,26.90
2018-06-01T06:50:34.393Z,26.87
2018-06-01T06:53:36.153Z,27.97
2018-06-01T06:56:38.658Z,27.83
2018-06-01T06:59:40.522Z,24.20
2018-06-01T07:02:42.331Z,44.73
2018-06-01T07:05:44.129Z,28.40
2018-06-01T07:08:45.836Z,31.03
2018-06-01T07:11:48.354Z,28.70
2018-06-01T07:14:50.116Z,27.03
2018-06-01T07:17:51.927Z,30.27
2018-06-01T07:20:53.719Z,29.13
2018-06-01T07:23:55.496Z,26.70
2018-06-01T07:26:57.232Z,27.20
2018-06-01T07:29:58.994Z,28.00
2018-06-01T07:33:00.732Z,26.77
2018-06-01T07:36:02.522Z,21.67
2018-06-01T07:39:05.498Z,22.00
2018-06-01T07:42:07.265Z,28.33
2018-06-01T07:45:09.020Z,27.10
2018-06-01T07:48:10.998Z,27.70
2018-06-01T07:51:14.741Z,29.77
2018-06-01T07:54:16.524Z,28.70
2018-06-01T07:57:18.278Z,29.10
2018-06-01T08:00:20.156Z,31.97
2018-06-01T08:03:21.906Z,32.80
2018-06-01T08:06:24.413Z,34.40
2018-06-01T08:09:26.167Z,39.77
2018-06-01T08:12:28.627Z,36.40
2018-06-01T08:15:30.405Z,36.30
2018-06-01T08:18:32.107Z,38.20
2018-06-01T08:21:33.855Z,37.93
2018-06-01T08:24:35.580Z,38.03
2018-06-01T08:27:37.374Z,38.03
2018-06-01T08:30:39.122Z,38.97
2018-06-01T08:33:40.919Z,42.87
2018-06-01T08:36:42.669Z,98.63
2018-06-01T08:39:44.384Z,64.30
2018-06-01T08:42:46.166Z,42.83
2018-06-01T08:45:47.988Z,40.13
2018-06-01T08:48:49.835Z,40.43
2018-06-01T08:51:51.941Z,40.43
2018-06-01T08:54:54.454Z,42.43
2018-06-01T08:57:56.226Z,41.07
2018-06-01T09:00:58.043Z,42.77
2018-06-01T09:03:59.762Z,42.67
2018-06-01T09:07:01.595Z,43.63
2018-06-01T09:10:03.384Z,42.60
2018-06-01T09:13:06.755Z,40.90
2018-06-01T09:16:08.521Z,40.70
2018-06-01T09:19:10.192Z,40.03
2018-06-01T09:22:11.968Z,41.33
2018-06-01T09:25:13.810Z,42.27
2018-06-01T09:28:16.312Z,43.23
2018-06-01T09:31:18.635Z,40.63
2018-06-01T09:34:21.291Z,38.63
2018-06-01T09:37:23.112Z,42.73
2018-06-01T09:40:24.847Z,42.30
2018-06-01T09:43:27.934Z,43.27
2018-06-01T09:46:29.325Z,44.80
2018-06-01T09:49:30.579Z,48.13
2018-06-01T09:52:31.835Z,46.20
2018-06-01T09:55:33.158Z,47.80
2018-06-01T09:58:34.390Z,46.77
2018-06-01T10:01:36.400Z,48.13
2018-06-01T10:04:37.637Z,48.60
2018-06-01T10:07:39.608Z,49.17
2018-06-01T10:10:40.851Z,49.20
2018-06-01T10:13:42.069Z,50.67
2018-06-01T10:16:43.362Z,51.37
2018-06-01T10:19:44.577Z,51.53
2018-06-01T10:22:46.562Z,50.53
2018-06-01T10:25:48.533Z,52.63
2018-06-01T10:28:50.524Z,54.37
2018-06-01T10:31:51.776Z,56.80
2018-06-01T10:34:53.742Z,57.27
2018-06-01T10:37:55.041Z,56.10
2018-06-01T10:40:56.284Z,58.00
2018-06-01T10:43:58.249Z,58.27
2018-06-01T10:46:59.502Z,59.47
2018-06-01T10:50:00.745Z,55.40
2018-06-01T10:53:02.012Z,60.10
2018-06-01T10:56:03.234Z,56.53
2018-06-01T10:59:04.467Z,58.23
2018-06-01T11:02:05.712Z,56.77
2018-06-01T11:05:06.948Z,58.57
2018-06-01T11:08:08.945Z,58.57
2018-06-01T11:11:10.167Z,58.27
2018-06-01T11:14:11.409Z,59.37
2018-06-01T11:17:13.386Z,60.20
2018-06-01T11:20:14.691Z,59.30
2018-06-01T11:23:15.915Z,58.97
2018-06-01T11:26:17.880Z,60.23
2018-06-01T11:29:19.110Z,61.53
2018-06-01T11:32:20.367Z,57.80
2018-06-01T11:35:21.605Z,57.20
2018-06-01T11:38:22.856Z,59.57
2018-06-01T11:41:24.823Z,54.30
2018-06-01T11:44:26.794Z,55.20
2018-06-01T11:47:28.062Z,54.43
2018-06-01T11:50:30.060Z,58.10
2018-06-01T11:53:31.309Z,55.13
2018-06-01T11:56:33.269Z,54.67
2018-06-01T11:59:34.552Z,57.20
2018-06-01T12:02:35.833Z,53.87
2018-06-01T12:05:37.077Z,55.90
2018-06-01T12:08:38.336Z,52.80
2018-06-01T12:11:40.349Z,56.30
2018-06-01T12:14:41.573Z,53.30
2018-06-01T12:17:42.756Z,56.47
2018-06-01T12:20:43.934Z,59.40
2018-06-01T12:23:45.163Z,58.03
2018-06-01T12:26:46.401Z,59.33
2018-06-01T12:29:48.366Z,55.27
2018-06-01T12:32:49.633Z,55.50
2018-06-01T12:35:50.862Z,56.77
2018-06-01T12:38:52.128Z,58.87
2018-06-01T12:41:53.365Z,60.57
2018-06-01T12:44:55.322Z,59.60
2018-06-01T12:47:56.596Z,58.23
2018-06-01T12:50:57.816Z,61.40
2018-06-01T12:53:59.099Z,58.30
2018-06-01T12:57:00.318Z,55.00
2018-06-01T13:00:01.577Z,56.13
2018-06-01T13:03:02.860Z,57.00
2018-06-01T13:06:04.122Z,55.47
2018-06-01T13:09:05.409Z,58.70
2018-06-01T13:12:06.739Z,63.20
2018-06-01T13:15:08.005Z,60.50
2018-06-01T13:18:09.258Z,64.00
2018-06-01T13:21:10.494Z,59.77
2018-06-01T13:24:11.843Z,60.83
2018-06-01T13:27:13.109Z,60.43
2018-06-01T13:30:14.365Z,61.03
2018-06-01T13:33:15.714Z,94.70
2018-06-01T13:36:16.958Z,60.63
2018-06-01T13:39:18.227Z,59.20
2018-06-01T13:42:19.708Z,59.50
2018-06-01T13:45:21.033Z,60.07
2018-06-01T13:48:22.294Z,52.60
2018-06-01T13:51:24.270Z,52.70
2018-06-01T13:54:26.241Z,48.97
2018-06-01T13:57:28.273Z,52.13
2018-06-01T14:00:29.594Z,51.93
2018-06-01T14:03:30.803Z,52.20
2018-06-01T14:06:32.031Z,49.87
2018-06-01T14:09:33.294Z,49.63
2018-06-01T14:12:34.538Z,49.77
2018-06-01T14:15:36.520Z,50.93
2018-06-01T14:18:38.480Z,46.07
2018-06-01T14:21:39.727Z,43.70
2018-06-01T14:24:41.132Z,42.03
2018-06-01T14:27:43.120Z,47.53
2018-06-01T14:30:45.091Z,41.60
2018-06-01T14:33:47.093Z,40.43
2018-06-01T14:36:48.351Z,40.70
2018-06-01T14:39:49.599Z,40.87
2018-06-01T14:42:51.574Z,38.97
2018-06-01T14:45:53.556Z,40.83
2018-06-01T14:48:55.550Z,43.20
2018-06-01T14:51:56.805Z,42.03
2018-06-01T14:54:58.775Z,39.60
2018-06-01T14:58:00.766Z,39.67
2018-06-01T15:01:02.774Z,41.73
2018-06-01T15:04:04.039Z,37.47
2018-06-01T15:07:05.254Z,40.57
2018-06-01T15:10:06.560Z,42.40
2018-06-01T15:13:07.850Z,42.60
2018-06-01T15:16:09.108Z,41.50
2018-06-01T15:19:10.381Z,43.23
2018-06-01T15:22:13.032Z,39.27
2018-06-01T15:25:14.330Z,36.80
2018-06-01T15:28:15.582Z,38.47
2018-06-01T15:31:16.828Z,41.77
2018-06-01T15:34:18.070Z,42.53
2018-06-01T15:37:20.059Z,43.47
2018-06-01T15:40:22.043Z,41.00
2018-06-01T15:43:24.058Z,43.90
2018-06-01T15:46:25.345Z,46.80
2018-06-01T15:49:26.598Z,45.97
2018-06-01T15:52:27.892Z,40.20
2018-06-01T15:55:29.904Z,37.03
2018-06-01T15:58:31.153Z,34.47
2018-06-01T16:01:33.160Z,33.03
2018-06-01T16:04:34.413Z,36.50
2018-06-01T16:07:36.125Z,36.00
2018-06-01T16:10:38.044Z,40.47
2018-06-01T16:13:40.064Z,40.10
2018-06-01T16:16:41.310Z,42.90
2018-06-01T16:19:42.577Z,43.70
2018-06-01T16:22:43.838Z,43.37
2018-06-01T16:25:45.120Z,43.90
2018-06-01T16:28:46.383Z,45.40
2018-06-01T16:31:47.637Z,47.93
2018-06-01T16:34:48.881Z,45.90
2018-06-01T16:37:50.150Z,45.70
2018-06-01T16:40:51.416Z,48.03
2018-06-01T16:43:52.662Z,48.20
2018-06-01T16:46:54.623Z,49.57
2018-06-01T16:49:55.905Z,53.10
2018-06-01T16:52:57.876Z,56.13
2018-06-01T16:55:59.874Z,69.73
2018-06-01T16:59:01.101Z,73.50
2018-06-01T17:02:02.347Z,74.70
2018-06-01T17:05:03.640Z,74.97
2018-06-01T17:08:05.685Z,74.57
2018-06-01T17:11:06.918Z,75.20
2018-06-01T17:14:08.148Z,72.83
2018-06-01T17:17:10.128Z,68.77
2018-06-01T17:20:12.113Z,71.67
2018-06-01T17:23:14.094Z,70.63
2018-06-01T17:26:16.133Z,69.10
2018-06-01T17:29:17.422Z,67.30
2018-06-01T17:32:18.665Z,67.67
2018-06-01T17:35:21.315Z,72.77
2018-06-01T17:38:22.585Z,67.20
2018-06-01T17:41:23.881Z,64.87
2018-06-01T17:44:25.091Z,67.07
2018-06-01T17:47:27.125Z,70.33
2018-06-01T17:50:28.381Z,66.60
2018-06-01T17:53:29.636Z,66.70
2018-06-01T17:56:31.125Z,68.03
2018-06-01T17:59:32.378Z,101.53
2018-06-01T18:02:33.647Z,69.63
2018-06-01T18:05:35.627Z,63.70
2018-06-01T18:08:36.912Z,79.50
2018-06-01T18:11:38.145Z,67.37
2018-06-01T18:14:39.405Z,69.73
2018-06-01T18:17:40.637Z,60.67
2018-06-01T18:20:41.874Z,56.80
2018-06-01T18:23:43.129Z,54.40
2018-06-01T18:26:45.143Z,52.43
2018-06-01T18:29:46.387Z,49.10
2018-06-01T18:32:48.376Z,51.00
2018-06-01T18:35:50.332Z,53.87
2018-06-01T18:38:51.677Z,53.23
2018-06-01T18:41:52.937Z,53.50
2018-06-01T18:44:54.241Z,54.00
2018-06-01T18:47:56.226Z,52.80
2018-06-01T18:50:58.253Z,49.10
2018-06-01T18:53:59.518Z,46.97
2018-06-01T18:57:00.807Z,48.73
2018-06-01T19:00:02.145Z,46.90
2018-06-01T19:03:03.423Z,42.67
2018-06-01T19:06:04.829Z,43.03
2018-06-01T19:09:06.834Z,42.13
2018-06-01T19:12:08.041Z,42.97
2018-06-01T19:15:09.275Z,41.93
2018-06-01T19:18:10.507Z,40.90
2018-06-01T19:21:12.478Z,42.97
2018-06-01T19:24:14.460Z,37.00
2018-06-01T19:27:16.429Z,40.17
2018-06-01T19:30:17.696Z,38.77
2018-06-01T19:33:19.657Z,42.17
2018-06-01T19:36:20.952Z,42.97
2018-06-01T19:39:22.940Z,41.00
2018-06-01T19:42:24.242Z,40.70
2018-06-01T19:45:25.986Z,41.00
2018-06-01T19:48:27.745Z,39.80
2018-06-01T19:51:29.837Z,39.00
2018-06-01T19:54:31.606Z,40.07
2018-06-01T19:57:34.077Z,39.00
2018-06-01T20:00:35.473Z,53.80
2018-06-01T20:03:37.020Z,111.83
2018-06-01T20:06:39.556Z,37.07
2018-06-01T20:09:40.874Z,33.20
2018-06-01T20:12:42.850Z,34.50
2018-06-01T20:15:44.190Z,33.33
2018-06-01T20:18:45.476Z,32.77
2018-06-01T20:21:46.719Z,31.00
2018-06-01T20:24:48.799Z,31.07
2018-06-01T20:27:50.071Z,31.23
2018-06-01T20:30:51.463Z,31.20
2018-06-01T20:33:53.776Z,31.47
2018-06-01T20:36:55.032Z,31.10
2018-06-01T20:39:56.304Z,30.73
2018-06-01T20:42:57.729Z,30.40
2018-06-01T20:45:59.832Z,33.10
2018-06-01T20:49:02.724Z,32.07
2018-06-01T20:52:05.015Z,32.73
2018-06-01T20:55:06.250Z,32.67
2018-06-01T20:58:07.473Z,32.53
2018-06-01T21:01:08.722Z,34.20
2018-06-01T21:04:09.989Z,32.77
2018-06-01T21:07:11.321Z,33.73
2018-06-01T21:10:13.318Z,31.70
2018-06-01T21:13:14.585Z,34.43
2018-06-01T21:16:16.586Z,32.30
2018-06-01T21:19:17.874Z,31.97
2018-06-01T21:22:19.099Z,34.57
2018-06-01T21:25:20.369Z,31.43
2018-06-01T21:28:21.617Z,33.00
2018-06-01T21:31:23.640Z,38.13
2018-06-01T21:34:25.034Z,35.90
2018-06-01T21:37:26.280Z,37.30
2018-06-01T21:40:27.513Z,37.70
2018-06-01T21:43:28.753Z,38.10
2018-06-01T21:46:30.723Z,40.37
2018-06-01T21:49:32.686Z,37.57
2018-06-01T21:52:33.919Z,39.80
2018-06-01T21:55:35.259Z,40.03
2018-06-01T21:58:36.578Z,39.60
2018-06-01T22:01:37.849Z,43.00
2018-06-01T22:04:39.096Z,43.23
2018-06-01T22:07:40.373Z,46.87
2018-06-01T22:10:41.762Z,47.87
2018-06-01T22:13:43.051Z,44.63
2018-06-01T22:16:44.319Z,45.70
2018-06-01T22:19:45.662Z,46.90
2018-06-01T22:22:46.911Z,45.63
2018-06-01T22:25:48.877Z,47.90
2018-06-01T22:28:50.140Z,44.30
2018-06-01T22:31:51.491Z,46.47
2018-06-01T22:34:52.705Z,45.73
2018-06-01T22:37:53.957Z,46.63
2018-06-01T22:40:56.130Z,46.13
2018-06-01T22:43:58.147Z,47.40
2018-06-01T22:46:59.713Z,44.23
2018-06-01T22:50:00.962Z,41.43
2018-06-01T22:58:25.018Z,44.67
2018-06-01T23:01:26.259Z,43.67
2018-06-01T23:04:28.310Z,41.60
2018-06-01T23:07:29.597Z,45.60
2018-06-01T23:10:31.801Z,42.67
2018-06-01T23:13:33.067Z,42.63
2018-06-01T23:16:35.097Z,43.83
2018-06-01T23:19:36.330Z,43.67
2018-06-01T23:22:37.546Z,41.53
2018-06-01T23:25:38.800Z,43.70
2018-06-01T23:28:40.039Z,42.10
2018-06-01T23:31:41.254Z,43.63
2018-06-01T23:34:43.256Z,42.73
2018-06-01T23:37:44.491Z,46.60
2018-06-01T23:40:46.446Z,42.67
2018-06-01T23:43:47.688Z,43.50
2018-06-01T23:46:48.926Z,42.50
2018-06-01T23:49:50.161Z,42.20
2018-06-01T23:52:52.172Z,42.70
2018-06-01T23:55:53.465Z,41.77
2018-06-01T23:58:54.719Z,39.70
